createdAt,value
2022-07-30T00:02:33.686Z,1.50
2022-07-30T00:05:41.709Z,1.40
2022-07-30T00:08:49.667Z,1.90
2022-07-30T00:11:58.028Z,2.20
2022-07-30T00:14:58.785Z,1.80
2022-07-30T00:18:06.409Z,1.80
2022-07-30T00:21:27.408Z,1.90
2022-07-30T00:24:19.395Z,2.10
2022-07-30T00:27:22.063Z,2.20
2022-07-30T00:30:29.824Z,2.30
2022-07-30T00:33:37.623Z,1.60
2022-07-30T00:36:46.006Z,2.00
2022-07-30T00:39:53.857Z,2.40
2022-07-30T00:43:01.638Z,2.30
2022-07-30T00:46:09.213Z,2.30
2022-07-30T00:49:17.479Z,2.20
2022-07-30T00:52:25.531Z,2.20
2022-07-30T00:55:32.939Z,2.10
2022-07-30T00:58:40.986Z,2.10
2022-07-30T01:01:48.981Z,1.90
2022-07-30T01:04:56.264Z,2.10
2022-07-30T01:08:04.478Z,2.10
2022-07-30T01:11:04.446Z,2.00
2022-07-30T01:14:12.239Z,2.20
2022-07-30T01:17:20.353Z,2.30
2022-07-30T01:20:27.690Z,2.30
2022-07-30T01:23:35.891Z,2.20
2022-07-30T01:26:44.411Z,2.50
2022-07-30T01:29:52.902Z,2.30
2022-07-30T01:33:00.984Z,3.10
2022-07-30T01:36:09.297Z,3.40
2022-07-30T01:39:17.580Z,6.00
2022-07-30T01:42:25.586Z,3.40
2022-07-30T01:45:35.699Z,4.10
2022-07-30T01:48:38.449Z,3.30
2022-07-30T01:51:46.393Z,3.20
2022-07-30T01:54:54.272Z,3.80
2022-07-30T01:58:01.991Z,3.60
2022-07-30T02:01:09.574Z,4.10
2022-07-30T02:04:17.760Z,3.80
2022-07-30T02:07:26.022Z,4.10
2022-07-30T02:10:33.455Z,3.90
2022-07-30T02:13:41.674Z,4.30
2022-07-30T02:16:49.654Z,4.20
2022-07-30T02:19:57.681Z,4.40
2022-07-30T02:23:05.908Z,4.70
2022-07-30T02:26:13.378Z,4.50
2022-07-30T02:29:21.571Z,4.30
2022-07-30T02:32:29.490Z,5.00
2022-07-30T02:35:36.885Z,4.80
2022-07-30T02:38:44.803Z,5.50
2022-07-30T02:41:53.054Z,5.30
2022-07-30T02:45:00.744Z,5.00
2022-07-30T02:48:08.808Z,5.40
2022-07-30T02:51:16.506Z,5.90
2022-07-30T02:54:24.265Z,5.30
2022-07-30T02:57:32.348Z,5.80
2022-07-30T03:00:40.189Z,6.20
2022-07-30T03:03:48.254Z,10.60
2022-07-30T03:06:56.359Z,6.60
2022-07-30T03:10:04.144Z,7.60
2022-07-30T03:13:12.031Z,7.40
2022-07-30T03:16:19.956Z,6.80
2022-07-30T03:19:28.185Z,6.30
2022-07-30T03:22:35.947Z,6.40
2022-07-30T03:25:43.997Z,6.60
2022-07-30T03:28:52.305Z,6.50
2022-07-30T03:32:00.291Z,6.50
2022-07-30T03:35:08.753Z,6.60
2022-07-30T03:38:13.119Z,6.50
2022-07-30T03:41:20.482Z,7.00
2022-07-30T03:44:28.781Z,7.10
2022-07-30T03:47:36.870Z,6.90
2022-07-30T03:50:44.226Z,7.70
2022-07-30T03:53:52.719Z,6.10
2022-07-30T03:57:01.328Z,4.80
2022-07-30T04:00:08.847Z,4.90
2022-07-30T04:03:17.109Z,4.20
2022-07-30T04:06:25.200Z,4.50
2022-07-30T04:09:33.136Z,5.60
2022-07-30T04:12:40.602Z,5.50
2022-07-30T04:16:31.753Z,5.20
2022-07-30T04:18:53.694Z,6.20
2022-07-30T04:22:01.803Z,5.30
2022-07-30T04:25:09.538Z,5.50
2022-07-30T04:28:17.503Z,5.50
2022-07-30T04:31:25.302Z,5.60
2022-07-30T04:34:33.476Z,5.20
2022-07-30T04:37:41.009Z,5.60
2022-07-30T04:40:49.553Z,5.40
2022-07-30T04:43:57.870Z,5.20
2022-07-30T04:47:05.560Z,5.80
2022-07-30T04:50:13.310Z,5.30
2022-07-30T04:53:21.099Z,5.40
2022-07-30T04:56:28.616Z,5.60
2022-07-30T04:59:36.653Z,6.00
2022-07-30T05:02:44.386Z,6.00
2022-07-30T05:05:56.771Z,6.00
2022-07-30T05:08:54.276Z,6.40
2022-07-30T05:12:02.177Z,5.90
2022-07-30T05:15:10.158Z,6.20
2022-07-30T05:18:18.368Z,6.10
2022-07-30T05:21:25.720Z,6.30
2022-07-30T05:24:26.422Z,6.40
2022-07-30T05:27:34.427Z,6.40
2022-07-30T05:30:37.322Z,5.90
2022-07-30T05:33:42.335Z,5.80
2022-07-30T05:36:40.214Z,5.80
2022-07-30T05:39:57.611Z,5.90
2022-07-30T05:42:53.016Z,6.30
2022-07-30T05:46:00.868Z,7.00
2022-07-30T05:49:08.875Z,6.40
2022-07-30T05:52:17.207Z,5.60
2022-07-30T05:55:25.046Z,6.40
2022-07-30T05:58:32.882Z,6.00
2022-07-30T06:01:41.208Z,6.90
2022-07-30T06:04:49.020Z,6.70
2022-07-30T06:07:56.872Z,6.40
2022-07-30T06:11:04.583Z,6.70
2022-07-30T06:14:12.845Z,6.30
2022-07-30T06:17:21.577Z,6.50
2022-07-30T06:20:29.267Z,6.00
2022-07-30T06:23:37.448Z,6.60
2022-07-30T06:26:45.330Z,6.70
2022-07-30T06:29:53.540Z,6.40
2022-07-30T06:33:01.964Z,6.10
2022-07-30T06:36:14.130Z,6.10
2022-07-30T06:39:11.247Z,6.20
2022-07-30T06:42:19.372Z,5.60
2022-07-30T06:45:26.795Z,6.10
2022-07-30T06:48:35.086Z,6.00
2022-07-30T06:51:44.556Z,5.60
2022-07-30T06:54:52.377Z,5.80
2022-07-30T06:58:01.070Z,6.00
2022-07-30T07:01:10.912Z,5.50
2022-07-30T07:04:09.066Z,6.00
2022-07-30T07:07:31.574Z,6.00
2022-07-30T07:10:22.753Z,6.80
2022-07-30T07:13:31.641Z,6.80
2022-07-30T07:16:40.372Z,6.30
2022-07-30T07:19:59.918Z,5.40
2022-07-30T07:22:53.626Z,5.60
2022-07-30T07:26:01.395Z,6.10
2022-07-30T07:29:10.090Z,5.70
2022-07-30T07:32:18.405Z,5.90
2022-07-30T07:35:26.131Z,5.70
2022-07-30T07:38:34.802Z,5.20
2022-07-30T07:41:48.452Z,4.50
2022-07-30T07:44:46.144Z,4.90
2022-07-30T07:47:54.714Z,4.50
2022-07-30T07:51:02.728Z,4.60
2022-07-30T07:54:21.110Z,4.90
2022-07-30T07:57:11.603Z,4.40
2022-07-30T08:00:11.419Z,4.90
2022-07-30T08:03:19.000Z,4.60
2022-07-30T08:06:26.531Z,4.40
2022-07-30T08:09:43.938Z,4.70
2022-07-30T08:12:39.123Z,5.40
2022-07-30T08:15:46.823Z,4.70
2022-07-30T08:18:54.612Z,4.80
2022-07-30T08:22:02.279Z,4.30
2022-07-30T08:25:10.026Z,3.80
2022-07-30T08:28:35.490Z,4.40
2022-07-30T08:31:23.378Z,4.10
2022-07-30T08:34:31.441Z,4.30
2022-07-30T08:37:39.579Z,3.90
2022-07-30T08:40:47.999Z,4.00
2022-07-30T08:43:56.524Z,3.60
2022-07-30T08:47:04.993Z,3.40
2022-07-30T08:50:12.532Z,4.00
2022-07-30T08:53:14.372Z,4.00
2022-07-30T08:56:21.927Z,3.70
2022-07-30T08:59:59.083Z,3.10
2022-07-30T09:02:35.058Z,3.30
2022-07-30T09:05:42.889Z,3.50
2022-07-30T09:08:50.658Z,2.70
2022-07-30T09:11:58.819Z,2.70
2022-07-30T09:15:08.553Z,3.00
2022-07-30T09:18:16.425Z,2.70
2022-07-30T09:21:24.254Z,2.80
2022-07-30T09:24:32.557Z,3.10
2022-07-30T09:27:40.968Z,2.70
2022-07-30T09:30:48.818Z,3.10
2022-07-30T09:33:56.971Z,2.80
2022-07-30T09:37:04.369Z,3.10
2022-07-30T09:40:12.449Z,3.00
2022-07-30T09:43:23.278Z,3.10
2022-07-30T09:46:22.352Z,2.90
2022-07-30T09:49:30.326Z,2.70
2022-07-30T09:52:44.242Z,3.00
2022-07-30T09:55:43.166Z,3.10
2022-07-30T09:58:51.918Z,2.70
2022-07-30T10:02:03.817Z,2.60
2022-07-30T10:05:02.070Z,2.80
2022-07-30T10:08:18.880Z,2.30
2022-07-30T10:11:15.394Z,2.50
2022-07-30T10:14:30.887Z,2.60
2022-07-30T10:17:28.443Z,2.40
2022-07-30T10:20:38.767Z,2.00
2022-07-30T10:23:50.486Z,2.30
2022-07-30T10:26:58.891Z,1.90
2022-07-30T10:30:07.239Z,2.30
2022-07-30T10:33:09.355Z,2.50
2022-07-30T10:36:15.074Z,2.00
2022-07-30T10:39:24.403Z,2.00
2022-07-30T10:42:33.819Z,1.90
2022-07-30T10:45:46.321Z,1.90
2022-07-30T10:48:44.701Z,1.70
2022-07-30T10:51:52.767Z,1.30
2022-07-30T10:55:01.545Z,1.20
2022-07-30T10:58:06.270Z,1.30
2022-07-30T11:01:18.150Z,1.40
2022-07-30T11:04:15.963Z,1.40
2022-07-30T11:07:17.714Z,1.50
2022-07-30T11:10:26.225Z,1.50
2022-07-30T11:13:36.233Z,1.40
2022-07-30T11:16:35.577Z,1.20
2022-07-30T11:19:54.874Z,1.10
2022-07-30T11:22:51.127Z,1.20
2022-07-30T11:25:59.371Z,1.20
2022-07-30T11:29:06.929Z,1.20
2022-07-30T11:32:15.304Z,1.20
2022-07-30T11:35:23.446Z,1.20
2022-07-30T11:38:31.597Z,1.50
2022-07-30T11:41:39.797Z,1.20
2022-07-30T11:44:47.338Z,1.10
2022-07-30T11:47:55.659Z,1.20
2022-07-30T11:51:04.215Z,1.30
2022-07-30T11:54:11.142Z,1.30
2022-07-30T11:57:19.414Z,1.30
2022-07-30T12:00:27.381Z,1.10
2022-07-30T12:03:35.417Z,1.30
2022-07-30T12:06:43.928Z,1.20
2022-07-30T12:09:51.909Z,1.20
2022-07-30T12:12:59.971Z,1.10
2022-07-30T12:16:08.240Z,1.10
2022-07-30T12:19:16.087Z,1.20
2022-07-30T12:22:23.860Z,1.20
2022-07-30T12:25:31.640Z,0.90
2022-07-30T12:28:39.747Z,1.40
2022-07-30T12:31:47.357Z,1.40
2022-07-30T12:34:54.880Z,0.90
2022-07-30T12:38:03.069Z,1.00
2022-07-30T12:41:10.712Z,0.90
2022-07-30T12:44:18.501Z,1.00
2022-07-30T12:47:10.570Z,0.90
2022-07-30T12:50:18.530Z,1.30
2022-07-30T12:53:26.642Z,1.10
2022-07-30T12:56:34.271Z,1.30
2022-07-30T12:59:42.015Z,1.70
2022-07-30T13:02:50.127Z,1.30
2022-07-30T13:05:57.538Z,1.70
2022-07-30T13:09:05.519Z,1.50
2022-07-30T13:12:13.491Z,1.50
2022-07-30T13:15:20.861Z,1.40
2022-07-30T13:18:28.971Z,1.30
2022-07-30T13:21:36.593Z,1.50
2022-07-30T13:24:44.255Z,1.40
2022-07-30T13:27:52.177Z,1.20
2022-07-30T13:30:59.957Z,1.50
2022-07-30T13:34:07.778Z,1.50
2022-07-30T13:37:15.672Z,1.50
2022-07-30T13:40:23.212Z,1.40
2022-07-30T13:43:33.528Z,1.40
2022-07-30T13:46:30.667Z,1.50
2022-07-30T13:49:38.633Z,1.20
2022-07-30T13:52:46.280Z,1.30
2022-07-30T13:55:53.998Z,1.40
2022-07-30T13:59:01.730Z,1.40
2022-07-30T14:02:09.991Z,1.60
2022-07-30T14:05:17.783Z,1.00
2022-07-30T14:08:25.484Z,1.20
2022-07-30T14:11:34.204Z,0.90
2022-07-30T14:14:42.118Z,1.00
2022-07-30T14:17:56.181Z,0.80
2022-07-30T14:20:53.709Z,1.00
2022-07-30T14:24:01.910Z,0.70
2022-07-30T14:27:11.382Z,0.90
2022-07-30T14:30:19.185Z,0.70
2022-07-30T14:33:26.956Z,0.90
2022-07-30T14:36:35.026Z,0.90
2022-07-30T14:39:42.834Z,0.90
2022-07-30T14:42:50.459Z,0.90
2022-07-30T14:45:58.047Z,1.00
2022-07-30T14:49:05.986Z,1.00
2022-07-30T14:52:13.642Z,0.80
2022-07-30T14:55:21.344Z,1.00
2022-07-30T14:58:29.025Z,0.90
2022-07-30T15:01:36.824Z,0.90
2022-07-30T15:04:44.895Z,0.70
2022-07-30T15:07:52.530Z,1.00
2022-07-30T15:11:02.667Z,0.80
2022-07-30T15:14:02.812Z,0.80
2022-07-30T15:17:10.604Z,1.10
2022-07-30T15:20:18.306Z,0.80
2022-07-30T15:23:26.015Z,1.10
2022-07-30T15:26:33.815Z,1.00
2022-07-30T15:29:41.339Z,0.90
2022-07-30T15:32:49.439Z,1.20
2022-07-30T15:35:56.814Z,1.20
2022-07-30T15:39:05.231Z,1.00
2022-07-30T15:42:14.645Z,0.90
2022-07-30T15:45:22.094Z,1.10
2022-07-30T15:48:30.558Z,0.90
2022-07-30T15:51:38.988Z,1.20
2022-07-30T15:54:46.500Z,1.40
2022-07-30T15:57:54.888Z,1.50
2022-07-30T16:01:02.825Z,1.20
2022-07-30T16:04:18.984Z,1.20
2022-07-30T16:07:16.504Z,1.40
2022-07-30T16:10:24.395Z,0.90
2022-07-30T16:13:32.354Z,0.80
2022-07-30T16:16:40.548Z,1.00
2022-07-30T16:19:48.297Z,1.10
2022-07-30T16:22:56.353Z,1.20
2022-07-30T16:26:04.539Z,1.20
2022-07-30T16:29:13.994Z,1.10
2022-07-30T16:32:22.234Z,1.10
2022-07-30T16:35:30.234Z,1.00
2022-07-30T16:38:38.513Z,0.90
2022-07-30T16:41:46.485Z,1.00
2022-07-30T16:44:54.300Z,0.90
2022-07-30T16:48:02.590Z,0.90
2022-07-30T16:51:10.552Z,1.20
2022-07-30T16:54:20.013Z,1.00
2022-07-30T16:57:28.365Z,1.30
2022-07-30T17:00:35.996Z,1.10
2022-07-30T17:03:44.206Z,1.10
2022-07-30T17:06:52.696Z,1.20
2022-07-30T17:10:00.143Z,1.30
2022-07-30T17:13:08.333Z,1.00
2022-07-30T17:16:16.411Z,1.30
2022-07-30T17:19:24.012Z,1.70
2022-07-30T17:22:32.223Z,1.60
2022-07-30T17:25:40.225Z,1.30
2022-07-30T17:28:48.185Z,1.50
2022-07-30T17:31:56.506Z,1.90
2022-07-30T17:35:04.386Z,1.60
2022-07-30T17:38:12.227Z,1.30
2022-07-30T17:41:20.530Z,1.60
2022-07-30T17:44:28.523Z,1.20
2022-07-30T17:47:36.632Z,1.50
2022-07-30T17:50:44.971Z,1.50
2022-07-30T17:53:54.192Z,1.60
2022-07-30T17:57:02.166Z,1.40
2022-07-30T18:00:10.097Z,1.60
2022-07-30T18:03:18.589Z,1.50
2022-07-30T18:06:26.590Z,1.70
2022-07-30T18:09:38.881Z,1.90
2022-07-30T18:12:38.210Z,1.80
2022-07-30T18:15:46.423Z,1.60
2022-07-30T18:18:54.331Z,2.20
2022-07-30T18:22:03.137Z,1.60
2022-07-30T18:25:18.552Z,1.80
2022-07-30T18:28:16.837Z,1.60
2022-07-30T18:31:24.969Z,2.40
2022-07-30T18:34:32.193Z,2.30
2022-07-30T18:37:41.848Z,1.70
2022-07-30T18:40:50.291Z,2.00
2022-07-30T18:43:57.633Z,1.50
2022-07-30T18:47:05.524Z,1.70
2022-07-30T18:50:14.458Z,1.60
2022-07-30T18:53:22.516Z,1.50
2022-07-30T18:56:31.205Z,1.60
2022-07-30T18:59:38.919Z,1.80
2022-07-30T19:02:46.611Z,1.70
2022-07-30T19:05:54.552Z,1.80
2022-07-30T19:09:02.223Z,1.80
2022-07-30T19:12:09.915Z,1.80
2022-07-30T19:15:17.774Z,2.00
2022-07-30T19:18:26.105Z,2.00
2022-07-30T19:21:33.834Z,1.80
2022-07-30T19:24:41.701Z,1.90
2022-07-30T19:27:49.450Z,2.00
2022-07-30T19:30:56.868Z,2.20
2022-07-30T19:34:04.882Z,2.10
2022-07-30T19:37:12.812Z,1.80
2022-07-30T19:40:20.952Z,1.80
2022-07-30T19:43:30.742Z,2.00
2022-07-30T19:46:30.497Z,2.00
2022-07-30T19:49:41.586Z,1.90
2022-07-30T19:52:51.263Z,1.70
2022-07-30T19:55:59.076Z,2.80
2022-07-30T20:02:13.755Z,2.10
2022-07-30T20:05:21.154Z,1.80
2022-07-30T20:08:24.561Z,2.40
2022-07-30T20:11:36.394Z,2.60
2022-07-30T20:14:27.295Z,2.60
2022-07-30T20:17:35.646Z,2.50
2022-07-30T20:20:42.997Z,2.30
2022-07-30T20:23:52.579Z,2.50
2022-07-30T20:27:00.301Z,2.50
2022-07-30T20:30:08.109Z,2.70
2022-07-30T20:33:16.132Z,2.50
2022-07-30T20:36:21.180Z,2.70
2022-07-30T20:39:28.922Z,2.80
2022-07-30T20:42:36.805Z,3.10
2022-07-30T20:45:44.874Z,2.70
2022-07-30T20:48:53.325Z,2.90
2022-07-30T20:52:01.096Z,2.60
2022-07-30T20:55:14.366Z,2.50
2022-07-30T20:58:16.507Z,2.80
2022-07-30T21:01:17.250Z,2.50
2022-07-30T21:04:23.805Z,2.60
2022-07-30T21:07:20.494Z,2.10
2022-07-30T21:10:29.009Z,3.00
2022-07-30T21:13:36.957Z,2.80
2022-07-30T21:16:44.784Z,2.90
2022-07-30T21:19:54.106Z,2.50
2022-07-30T21:23:02.263Z,2.60
2022-07-30T21:26:13.636Z,2.60
2022-07-30T21:29:11.419Z,2.60
2022-07-30T21:32:18.849Z,2.60
2022-07-30T21:35:32.103Z,3.30
2022-07-30T21:38:30.541Z,3.00
2022-07-30T21:41:40.563Z,2.60
2022-07-30T21:44:38.422Z,2.50
2022-07-30T21:47:47.950Z,2.40
2022-07-30T21:50:55.765Z,2.50
2022-07-30T21:54:07.023Z,2.80
2022-07-30T21:57:04.286Z,2.60
2022-07-30T22:00:14.738Z,2.90
2022-07-30T22:04:02.124Z,2.80
2022-07-30T22:06:28.669Z,2.90
2022-07-30T22:09:37.671Z,2.40
2022-07-30T22:12:45.472Z,2.80
2022-07-30T22:15:53.613Z,2.70
2022-07-30T22:19:00.984Z,2.90
2022-07-30T22:22:26.531Z,2.90
2022-07-30T22:25:16.465Z,2.70
2022-07-30T22:28:23.864Z,2.70
2022-07-30T22:31:39.643Z,2.90
2022-07-30T22:34:37.522Z,3.10
2022-07-30T22:37:44.902Z,3.40
2022-07-30T22:40:53.881Z,3.40
2022-07-30T22:44:01.304Z,3.50
2022-07-30T22:47:10.165Z,4.00
2022-07-30T22:50:15.029Z,3.60
2022-07-30T22:54:03.027Z,3.30
2022-07-30T22:56:30.280Z,3.20
2022-07-30T22:59:57.967Z,3.20
2022-07-30T23:02:45.179Z,3.10
2022-07-30T23:05:55.042Z,3.20
2022-07-30T23:08:54.010Z,3.50
2022-07-30T23:12:03.327Z,3.20
2022-07-30T23:12:15.503Z,2.00
2022-07-30T23:15:11.302Z,3.00
2022-07-30T23:18:19.491Z,3.50
2022-07-30T23:21:27.314Z,3.50
2022-07-30T23:24:35.105Z,3.20
2022-07-30T23:27:36.868Z,3.30
2022-07-30T23:30:44.186Z,3.50
2022-07-30T23:33:52.240Z,3.80
2022-07-30T23:37:00.665Z,3.40
2022-07-30T23:40:08.230Z,3.40
2022-07-30T23:43:16.040Z,3.80
2022-07-30T23:46:23.959Z,3.50
2022-07-30T23:49:31.595Z,3.80
2022-07-30T23:52:39.374Z,3.90
2022-07-30T23:55:47.233Z,4.20
2022-07-30T23:58:55.454Z,4.50
